createdAt,value
2023-01-07T00:01:42.609Z,9.77
2023-01-07T00:04:13.444Z,9.57
2023-01-07T00:06:42.310Z,12.33
2023-01-07T00:09:15.605Z,10.63
2023-01-07T00:11:42.346Z,12.37
2023-01-07T00:14:12.417Z,12.03
2023-01-07T00:16:39.976Z,7.13
2023-01-07T00:19:09.858Z,9.77
2023-01-07T00:21:36.389Z,10.33
2023-01-07T00:24:06.279Z,9.50
2023-01-07T00:26:36.633Z,11.13
2023-01-07T00:29:05.297Z,8.50
2023-01-07T00:31:35.763Z,8.97
2023-01-07T00:34:03.013Z,11.00
2023-01-07T00:36:33.564Z,11.93
2023-01-07T00:39:08.298Z,13.13
2023-01-07T00:41:35.388Z,10.63
2023-01-07T00:44:03.224Z,13.67
2023-01-07T00:46:29.811Z,11.70
2023-01-07T00:48:56.823Z,11.03
2023-01-07T00:51:23.815Z,10.90
2023-01-07T00:53:50.569Z,7.90
2023-01-07T00:56:18.400Z,7.00
2023-01-07T00:58:45.617Z,5.40
2023-01-07T01:01:12.722Z,9.50
2023-01-07T01:03:40.121Z,8.47
2023-01-07T01:06:12.504Z,10.13
2023-01-07T01:08:45.403Z,17.50
2023-01-07T01:11:15.189Z,8.70
2023-01-07T01:13:42.930Z,7.63
2023-01-07T01:16:13.391Z,8.50
2023-01-07T01:18:40.605Z,6.97
2023-01-07T01:21:11.362Z,9.50
2023-01-07T01:23:38.667Z,9.60
2023-01-07T01:26:08.810Z,10.93
2023-01-07T01:28:35.724Z,10.80
2023-01-07T01:31:03.600Z,8.27
2023-01-07T01:33:30.332Z,10.30
2023-01-07T01:35:56.936Z,8.97
2023-01-07T01:38:23.400Z,8.53
2023-01-07T01:40:49.871Z,8.30
2023-01-07T01:43:38.897Z,8.33
2023-01-07T01:46:50.794Z,9.40
2023-01-07T01:49:36.444Z,8.20
2023-01-07T01:52:12.557Z,7.97
2023-01-07T01:54:43.118Z,12.00
2023-01-07T01:57:09.968Z,11.83
2023-01-07T01:59:48.019Z,11.93
2023-01-07T02:02:30.820Z,6.83
2023-01-07T02:04:57.864Z,8.23
2023-01-07T02:07:24.454Z,10.30
2023-01-07T02:10:00.656Z,9.27
2023-01-07T02:13:46.929Z,9.07
2023-01-07T02:18:58.092Z,7.47
2023-01-07T02:23:21.405Z,8.73
2023-01-07T02:30:59.859Z,10.87
2023-01-07T02:39:56.451Z,10.93
2023-01-07T02:43:09.439Z,6.37
2023-01-07T02:47:00.579Z,9.30
2023-01-07T02:49:27.038Z,11.97
2023-01-07T02:51:53.542Z,11.03
2023-01-07T02:54:28.796Z,8.70
2023-01-07T02:57:39.755Z,11.93
2023-01-07T03:02:42.380Z,10.57
2023-01-07T03:08:12.808Z,6.60
2023-01-07T03:11:08.531Z,7.33
2023-01-07T03:14:01.663Z,7.13
2023-01-07T03:16:46.704Z,9.90
2023-01-07T03:19:19.588Z,8.70
2023-01-07T03:21:49.635Z,6.53
2023-01-07T03:24:18.218Z,6.33
2023-01-07T03:26:50.658Z,7.57
2023-01-07T03:29:19.525Z,6.97
2023-01-07T03:32:15.432Z,5.00
2023-01-07T03:34:44.065Z,4.60
2023-01-07T03:37:15.727Z,9.97
2023-01-07T03:39:44.570Z,5.70
2023-01-07T03:42:31.567Z,8.73
2023-01-07T03:44:59.117Z,11.13
2023-01-07T03:47:28.072Z,6.57
2023-01-07T03:49:54.536Z,8.23
2023-01-07T03:52:21.027Z,8.13
2023-01-07T03:54:47.528Z,8.93
2023-01-07T03:57:14.024Z,9.40
2023-01-07T03:59:40.511Z,10.30
2023-01-07T04:02:07.135Z,10.40
2023-01-07T04:04:33.771Z,10.47
2023-01-07T04:07:00.266Z,7.57
2023-01-07T04:09:26.762Z,8.67
2023-01-07T04:11:53.218Z,7.00
2023-01-07T04:14:19.714Z,6.43
2023-01-07T04:16:46.394Z,7.67
2023-01-07T04:19:12.946Z,7.13
2023-01-07T04:21:39.470Z,7.13
2023-01-07T04:24:06.840Z,8.33
2023-01-07T04:26:33.324Z,4.20
2023-01-07T04:28:59.772Z,7.20
2023-01-07T04:31:26.588Z,3.57
2023-01-07T04:33:53.074Z,4.57
2023-01-07T04:36:19.592Z,6.50
2023-01-07T04:38:46.048Z,5.47
2023-01-07T04:41:12.545Z,7.73
2023-01-07T04:43:38.996Z,6.97
2023-01-07T04:46:05.729Z,6.63
2023-01-07T04:48:32.539Z,6.87
2023-01-07T04:50:59.258Z,10.50
2023-01-07T04:53:26.228Z,4.20
2023-01-07T04:55:53.804Z,6.30
2023-01-07T04:58:20.611Z,5.17
2023-01-07T05:00:48.381Z,6.40
2023-01-07T05:03:14.877Z,22.60
2023-01-07T05:05:41.379Z,5.07
2023-01-07T05:08:07.844Z,8.97
2023-01-07T05:10:34.327Z,6.70
2023-01-07T05:13:06.629Z,6.43
2023-01-07T05:15:33.799Z,5.70
2023-01-07T05:18:01.155Z,7.43
2023-01-07T05:20:27.651Z,6.43
2023-01-07T05:22:54.120Z,8.07
2023-01-07T05:25:20.641Z,7.23
2023-01-07T05:27:47.128Z,9.80
2023-01-07T05:30:14.548Z,9.97
2023-01-07T05:32:41.060Z,5.53
2023-01-07T05:35:08.224Z,4.03
2023-01-07T05:37:34.798Z,4.43
2023-01-07T05:40:01.292Z,3.87
2023-01-07T05:42:27.734Z,4.77
2023-01-07T05:44:54.247Z,5.83
2023-01-07T05:47:20.733Z,5.00
2023-01-07T05:49:47.185Z,5.07
2023-01-07T05:52:13.725Z,5.97
2023-01-07T05:54:40.443Z,7.00
2023-01-07T05:57:07.068Z,8.83
2023-01-07T05:59:34.071Z,6.00
2023-01-07T06:02:01.442Z,7.77
2023-01-07T06:04:27.923Z,9.73
2023-01-07T06:06:54.489Z,6.93
2023-01-07T06:09:21.637Z,8.67
2023-01-07T06:11:48.280Z,5.70
2023-01-07T06:14:14.781Z,3.87
2023-01-07T06:16:41.296Z,5.13
2023-01-07T06:19:07.758Z,3.93
2023-01-07T06:21:34.240Z,4.37
2023-01-07T06:24:00.719Z,4.93
2023-01-07T06:26:27.197Z,5.60
2023-01-07T06:28:53.690Z,5.07
2023-01-07T06:31:20.248Z,5.20
2023-01-07T06:33:46.799Z,7.07
2023-01-07T06:36:13.268Z,8.27
2023-01-07T06:38:41.012Z,9.43
2023-01-07T06:41:08.674Z,5.93
2023-01-07T06:43:35.196Z,8.67
2023-01-07T06:46:02.119Z,6.27
2023-01-07T06:48:28.630Z,4.50
2023-01-07T06:50:55.107Z,6.13
2023-01-07T06:53:21.596Z,4.73
2023-01-07T06:55:49.911Z,10.87
2023-01-07T06:58:17.282Z,6.30
2023-01-07T07:00:44.273Z,8.90
2023-01-07T07:03:10.900Z,5.73
2023-01-07T07:05:37.535Z,5.10
2023-01-07T07:08:04.463Z,9.47
2023-01-07T07:10:30.938Z,8.67
2023-01-07T07:12:57.436Z,6.33
2023-01-07T07:15:23.898Z,6.70
2023-01-07T07:17:50.382Z,8.23
2023-01-07T07:20:16.991Z,5.43
2023-01-07T07:22:48.487Z,8.87
2023-01-07T07:25:15.429Z,11.40
2023-01-07T07:27:45.728Z,6.63
2023-01-07T07:30:16.075Z,3.87
2023-01-07T07:32:42.966Z,4.20
2023-01-07T07:35:10.732Z,5.97
2023-01-07T07:37:38.007Z,7.80
2023-01-07T07:40:05.906Z,4.83
2023-01-07T07:42:32.584Z,4.37
2023-01-07T07:45:39.167Z,5.60
2023-01-07T07:48:07.318Z,4.97
2023-01-07T07:50:35.311Z,4.10
2023-01-07T07:53:01.965Z,3.63
2023-01-07T07:55:28.679Z,11.10
2023-01-07T07:57:57.455Z,5.00
2023-01-07T08:00:24.417Z,4.77
2023-01-07T08:02:50.950Z,7.77
2023-01-07T08:05:17.547Z,8.87
2023-01-07T08:07:44.052Z,11.17
2023-01-07T08:10:10.547Z,9.73
2023-01-07T08:12:38.544Z,10.97
2023-01-07T08:15:07.359Z,14.03
2023-01-07T08:17:35.491Z,12.23
2023-01-07T08:20:03.844Z,14.87
2023-01-07T08:22:30.475Z,17.37
2023-01-07T08:24:56.984Z,10.30
2023-01-07T08:27:23.443Z,12.20
2023-01-07T08:29:49.922Z,9.70
2023-01-07T08:32:16.372Z,6.97
2023-01-07T08:34:42.864Z,8.80
2023-01-07T08:37:09.335Z,8.03
2023-01-07T08:39:35.816Z,9.17
2023-01-07T08:42:02.352Z,9.17
2023-01-07T08:44:28.833Z,7.27
2023-01-07T08:46:55.491Z,10.67
2023-01-07T08:49:22.458Z,10.67
2023-01-07T08:51:48.922Z,12.67
2023-01-07T08:54:15.413Z,14.70
2023-01-07T08:56:41.891Z,14.37
2023-01-07T08:59:08.373Z,14.63
2023-01-07T09:01:35.023Z,12.27
2023-01-07T09:04:01.685Z,11.00
2023-01-07T09:06:28.160Z,11.70
2023-01-07T09:08:54.642Z,10.80
2023-01-07T09:11:21.405Z,12.77
2023-01-07T09:13:47.858Z,12.43
2023-01-07T09:16:14.399Z,11.50
2023-01-07T09:18:40.860Z,11.63
2023-01-07T09:21:07.326Z,13.83
2023-01-07T09:23:33.890Z,15.80
2023-01-07T09:26:00.675Z,20.27
2023-01-07T09:28:27.220Z,22.53
2023-01-07T09:30:56.531Z,20.10
2023-01-07T09:33:23.557Z,17.37
2023-01-07T09:35:50.048Z,18.83
2023-01-07T09:38:16.661Z,18.53
2023-01-07T09:40:44.862Z,18.30
2023-01-07T09:45:41.927Z,16.47
2023-01-07T09:49:40.833Z,17.33
2023-01-07T09:53:51.292Z,18.57
2023-01-07T09:56:35.847Z,15.57
2023-01-07T09:59:04.897Z,12.13
2023-01-07T10:02:14.652Z,15.20
2023-01-07T10:05:32.455Z,12.30
2023-01-07T10:10:16.001Z,8.10
2023-01-07T10:17:59.825Z,13.73
2023-01-07T10:20:55.969Z,17.33
2023-01-07T10:23:31.271Z,23.47
2023-01-07T10:26:01.345Z,22.87
2023-01-07T10:30:02.555Z,16.10
2023-01-07T10:32:35.879Z,13.20
2023-01-07T10:35:06.363Z,11.67
2023-01-07T10:37:39.927Z,13.77
2023-01-07T10:46:44.805Z,13.97
2023-01-07T10:50:54.501Z,9.03
2023-01-07T10:54:11.308Z,10.57
2023-01-07T10:56:57.375Z,9.90
2023-01-07T10:59:25.121Z,16.57
2023-01-07T11:01:56.808Z,14.80
2023-01-07T11:04:24.357Z,15.80
2023-01-07T11:07:03.393Z,18.10
2023-01-07T11:09:40.769Z,22.80
2023-01-07T11:12:46.078Z,16.33
2023-01-07T11:16:16.745Z,15.23
2023-01-07T11:19:08.397Z,11.43
2023-01-07T11:21:44.740Z,15.37
2023-01-07T11:24:34.240Z,9.30
2023-01-07T11:27:17.086Z,12.90
2023-01-07T11:30:19.477Z,14.10
2023-01-07T11:34:33.937Z,16.90
2023-01-07T11:37:02.276Z,7.30
2023-01-07T11:39:35.572Z,7.97
2023-01-07T11:42:38.371Z,9.33
2023-01-07T11:45:16.530Z,6.73
2023-01-07T11:48:31.877Z,6.83
2023-01-07T11:51:06.009Z,6.83
2023-01-07T11:55:24.802Z,9.50
2023-01-07T11:58:27.789Z,8.47
2023-01-07T12:01:25.249Z,7.13
2023-01-07T12:04:37.383Z,8.87
2023-01-07T12:07:15.975Z,5.67
2023-01-07T12:09:45.381Z,4.23
2023-01-07T12:12:37.517Z,4.90
2023-01-07T12:15:26.288Z,3.97
2023-01-07T12:24:07.227Z,3.57
2023-01-07T12:27:15.914Z,3.70
2023-01-07T12:32:55.079Z,4.27
2023-01-07T12:35:32.614Z,2.40
2023-01-07T12:38:26.731Z,5.77
2023-01-07T12:41:10.937Z,2.77
2023-01-07T12:44:27.666Z,2.57
2023-01-07T12:47:54.082Z,3.83
2023-01-07T12:50:44.831Z,2.50
2023-01-07T12:53:55.492Z,3.83
2023-01-07T12:56:39.659Z,5.07
2023-01-07T12:59:45.787Z,2.53
2023-01-07T13:03:24.333Z,2.90
2023-01-07T13:06:14.701Z,4.30
2023-01-07T13:09:01.594Z,2.73
2023-01-07T13:12:03.821Z,2.70
2023-01-07T13:14:50.160Z,7.33
2023-01-07T13:17:25.541Z,7.20
2023-01-07T13:19:52.648Z,4.30
2023-01-07T13:25:13.546Z,4.67
2023-01-07T13:32:50.945Z,2.40
2023-01-07T13:36:19.257Z,3.67
2023-01-07T13:39:39.338Z,3.30
2023-01-07T13:43:01.238Z,2.67
2023-01-07T13:45:34.383Z,4.17
2023-01-07T13:48:06.478Z,3.93
2023-01-07T13:50:42.980Z,5.63
2023-01-07T13:53:52.069Z,2.83
2023-01-07T13:56:39.883Z,3.73
2023-01-07T13:59:29.788Z,4.20
2023-01-07T14:02:20.183Z,2.67
2023-01-07T14:05:38.813Z,3.50
2023-01-07T14:08:05.432Z,2.60
2023-01-07T14:10:35.558Z,3.43
2023-01-07T14:18:41.784Z,2.13
2023-01-07T14:24:12.955Z,1.80
2023-01-07T14:30:15.999Z,2.30
2023-01-07T14:32:44.423Z,3.20
2023-01-07T14:35:29.526Z,7.43
2023-01-07T14:37:56.005Z,2.87
2023-01-07T14:41:29.146Z,3.40
2023-01-07T14:44:24.224Z,7.03
2023-01-07T14:46:51.552Z,6.50
2023-01-07T14:52:56.280Z,8.27
2023-01-07T14:58:41.453Z,6.40
2023-01-07T15:04:19.138Z,6.87
2023-01-07T15:06:46.999Z,11.77
2023-01-07T15:09:44.637Z,14.63
2023-01-07T15:12:47.809Z,4.60
2023-01-07T15:15:44.424Z,2.13
2023-01-07T15:18:12.825Z,3.20
2023-01-07T15:21:35.538Z,7.20
2023-01-07T15:24:48.436Z,2.70
2023-01-07T15:27:31.145Z,5.70
2023-01-07T15:30:35.417Z,4.20
2023-01-07T15:34:32.751Z,2.63
2023-01-07T15:37:04.878Z,4.10
2023-01-07T15:39:44.445Z,2.77
2023-01-07T15:42:19.556Z,5.73
2023-01-07T15:44:53.477Z,3.63
2023-01-07T15:47:41.061Z,3.33
2023-01-07T15:52:32.167Z,3.73
2023-01-07T15:55:14.482Z,4.37
2023-01-07T15:57:41.264Z,7.40
2023-01-07T16:00:09.390Z,4.47
2023-01-07T16:02:43.426Z,8.47
2023-01-07T16:05:10.452Z,4.77
2023-01-07T16:07:56.775Z,10.80
2023-01-07T16:10:33.400Z,8.70
2023-01-07T16:13:15.531Z,9.50
2023-01-07T16:15:42.039Z,5.10
2023-01-07T16:18:18.332Z,7.57
2023-01-07T16:21:13.495Z,5.50
2023-01-07T16:23:40.993Z,5.67
2023-01-07T16:26:18.540Z,5.07
2023-01-07T16:28:54.341Z,8.20
2023-01-07T16:31:24.984Z,6.30
2023-01-07T16:33:57.037Z,6.33
2023-01-07T16:36:30.698Z,6.90
2023-01-07T16:39:05.647Z,8.27
2023-01-07T16:41:32.393Z,7.43
2023-01-07T16:44:01.191Z,7.43
2023-01-07T16:46:36.401Z,6.87
2023-01-07T16:49:29.006Z,11.70
2023-01-07T16:52:12.979Z,18.60
2023-01-07T16:54:41.997Z,18.47
2023-01-07T16:57:50.655Z,26.20
2023-01-07T17:00:19.504Z,23.13
2023-01-07T17:02:57.884Z,29.33
2023-01-07T17:05:31.676Z,16.27
2023-01-07T17:08:06.261Z,14.57
2023-01-07T17:10:37.307Z,16.40
2023-01-07T17:13:49.199Z,21.23
2023-01-07T17:16:29.454Z,17.70
2023-01-07T17:19:20.713Z,20.70
2023-01-07T17:21:47.375Z,21.63
2023-01-07T17:26:40.746Z,28.10
2023-01-07T17:29:12.394Z,20.67
2023-01-07T17:31:43.003Z,23.17
2023-01-07T17:34:12.789Z,24.00
2023-01-07T17:36:39.290Z,25.37
2023-01-07T17:39:05.797Z,21.10
2023-01-07T17:41:53.659Z,19.53
2023-01-07T17:44:20.204Z,14.77
2023-01-07T17:46:46.659Z,11.40
2023-01-07T17:49:13.453Z,16.13
2023-01-07T17:51:46.472Z,15.30
2023-01-07T17:54:23.883Z,18.07
2023-01-07T17:56:51.640Z,17.03
2023-01-07T17:59:22.555Z,16.70
2023-01-07T18:01:52.064Z,16.77
2023-01-07T18:04:20.647Z,14.17
2023-01-07T18:06:47.096Z,16.50
2023-01-07T18:09:13.686Z,18.20
2023-01-07T18:12:03.058Z,16.37
2023-01-07T18:14:31.530Z,11.67
2023-01-07T18:16:58.029Z,12.17
2023-01-07T18:19:24.504Z,18.60
2023-01-07T18:21:50.980Z,13.10
2023-01-07T18:24:20.919Z,13.47
2023-01-07T18:26:48.102Z,13.77
2023-01-07T18:29:14.629Z,9.93
2023-01-07T18:31:44.023Z,10.13
2023-01-07T18:34:13.630Z,8.33
2023-01-07T18:36:40.969Z,9.00
2023-01-07T18:39:10.519Z,15.90
2023-01-07T18:41:39.169Z,14.20
2023-01-07T18:44:05.812Z,11.67
2023-01-07T18:46:32.349Z,11.87
2023-01-07T18:48:59.218Z,12.30
2023-01-07T18:51:25.748Z,12.13
2023-01-07T18:53:52.208Z,10.20
2023-01-07T18:56:18.694Z,12.50
2023-01-07T18:58:45.153Z,9.87
2023-01-07T19:01:11.919Z,21.77
2023-01-07T19:03:38.619Z,10.30
2023-01-07T19:06:08.103Z,10.20
2023-01-07T19:08:35.124Z,13.00
2023-01-07T19:11:12.340Z,12.23
2023-01-07T19:13:39.188Z,14.07
2023-01-07T19:16:12.133Z,10.03
2023-01-07T19:18:39.167Z,13.07
2023-01-07T19:21:10.120Z,22.03
2023-01-07T19:23:36.603Z,29.20
2023-01-07T19:26:07.613Z,40.73
2023-01-07T19:28:34.469Z,23.93
2023-01-07T19:31:06.033Z,11.10
2023-01-07T19:33:33.479Z,13.27
2023-01-07T19:36:10.775Z,14.93
2023-01-07T19:38:43.240Z,15.90
2023-01-07T19:41:16.430Z,15.40
2023-01-07T19:43:45.055Z,16.57
2023-01-07T19:46:13.672Z,20.30
2023-01-07T19:48:41.510Z,22.77
2023-01-07T19:51:08.345Z,11.77
2023-01-07T19:53:35.906Z,15.33
2023-01-07T19:56:09.549Z,13.97
2023-01-07T19:58:38.234Z,10.00
2023-01-07T20:01:15.182Z,10.40
2023-01-07T20:03:42.837Z,13.83
2023-01-07T20:06:16.303Z,13.70
2023-01-07T20:08:43.483Z,16.10
2023-01-07T20:11:11.493Z,17.30
2023-01-07T20:13:39.390Z,16.67
2023-01-07T20:16:21.541Z,14.23
2023-01-07T20:18:51.422Z,16.87
2023-01-07T20:21:21.117Z,14.77
2023-01-07T20:23:48.406Z,15.10
2023-01-07T20:26:20.250Z,13.67
2023-01-07T20:28:47.749Z,19.40
2023-01-07T20:31:17.410Z,20.17
2023-01-07T20:33:44.810Z,15.73
2023-01-07T20:36:15.062Z,15.87
2023-01-07T20:38:44.366Z,17.10
2023-01-07T20:41:21.110Z,15.00
2023-01-07T20:43:53.687Z,13.23
2023-01-07T20:46:21.049Z,11.80
2023-01-07T20:48:48.251Z,11.23
2023-01-07T20:51:15.883Z,15.50
2023-01-07T20:53:43.164Z,20.57
2023-01-07T20:56:10.748Z,16.47
2023-01-07T20:58:38.563Z,15.20
2023-01-07T21:01:09.403Z,14.37
2023-01-07T21:03:37.657Z,17.17
2023-01-07T21:06:04.829Z,13.33
2023-01-07T21:08:31.299Z,19.13
2023-01-07T21:10:57.815Z,17.00
2023-01-07T21:13:24.472Z,17.20
2023-01-07T21:15:51.806Z,14.00
2023-01-07T21:18:18.621Z,17.47
2023-01-07T21:20:47.192Z,14.47
2023-01-07T21:23:13.704Z,16.03
2023-01-07T21:25:40.340Z,31.00
2023-01-07T21:28:09.473Z,24.13
2023-01-07T21:30:36.574Z,22.13
2023-01-07T21:33:03.052Z,21.23
2023-01-07T21:35:29.567Z,20.27
2023-01-07T21:37:56.026Z,20.53
2023-01-07T21:43:11.424Z,15.77
2023-01-07T21:45:37.955Z,15.23
2023-01-07T21:48:04.898Z,21.13
2023-01-07T21:50:31.378Z,19.07
2023-01-07T21:52:57.933Z,14.70
2023-01-07T21:55:24.379Z,16.53
2023-01-07T21:57:50.855Z,26.60
2023-01-07T22:00:17.399Z,16.63
2023-01-07T22:02:44.155Z,23.17
2023-01-07T22:05:11.249Z,17.77
2023-01-07T22:07:38.987Z,16.27
2023-01-07T22:10:07.571Z,14.30
2023-01-07T22:12:34.037Z,16.53
2023-01-07T22:15:00.523Z,20.03
2023-01-07T22:17:27.001Z,17.50
2023-01-07T22:19:53.498Z,14.53
2023-01-07T22:22:20.302Z,19.90
2023-01-07T22:24:46.853Z,19.30
2023-01-07T22:27:13.376Z,15.40
2023-01-07T22:29:40.601Z,17.10
2023-01-07T22:32:07.060Z,17.20
2023-01-07T22:34:33.574Z,16.63
2023-01-07T22:37:21.226Z,19.10
2023-01-07T22:39:57.815Z,19.63
2023-01-07T22:42:35.993Z,19.97
2023-01-07T22:45:17.705Z,15.80
2023-01-07T22:47:50.260Z,16.37
2023-01-07T22:50:18.050Z,48.70
2023-01-07T22:52:46.087Z,23.23
2023-01-07T22:55:12.778Z,15.73
2023-01-07T22:57:41.128Z,16.57
2023-01-07T23:00:33.555Z,20.83
2023-01-07T23:03:00.093Z,11.60
2023-01-07T23:05:26.613Z,16.27
2023-01-07T23:07:53.075Z,16.80
2023-01-07T23:10:19.545Z,15.87
2023-01-07T23:12:46.004Z,14.30
2023-01-07T23:15:12.510Z,17.77
2023-01-07T23:17:38.963Z,13.83
2023-01-07T23:20:06.274Z,11.90
2023-01-07T23:22:32.776Z,12.03
2023-01-07T23:24:59.242Z,13.10
2023-01-07T23:27:25.773Z,16.40
2023-01-07T23:29:52.214Z,18.83
2023-01-07T23:32:18.810Z,14.43
2023-01-07T23:34:45.401Z,14.17
2023-01-07T23:37:11.888Z,17.37
2023-01-07T23:39:38.358Z,12.07
2023-01-07T23:42:04.855Z,14.73
2023-01-07T23:44:31.316Z,17.50
2023-01-07T23:46:57.810Z,14.33
2023-01-07T23:49:24.267Z,14.77
2023-01-07T23:51:50.733Z,14.73
2023-01-07T23:54:17.242Z,12.43
2023-01-07T23:56:43.730Z,14.03
2023-01-07T23:59:10.574Z,39.27
